Time;durP1;ratioP1;P1;durP2;ratioP2;P2;SDS_P1;SDS_P2;PMS_P1;PMS_P2;Temp;Humidity;BMP_temperature;BMP_pressure;BME280_temperature;BME280_humidity;BME280_pressure;Samples;Min_cycle;Max_cycle;Signal;HPM_P1;HPM_P2
2023/08/07 00:01:06;;;;;;;4.37;3.97;;;;;;;;;;5074012;28;20224;-80
2023/08/07 00:03:35;;;;;;;4.30;3.90;;;;;;;;;;5073870;28;20740;-80
2023/08/07 00:06:02;;;;;;;4.20;3.90;;;;;;;;;;5057517;28;20257;-80
2023/08/07 00:08:31;;;;;;;6.33;4.00;;;;;;;;;;5073709;28;20208;-80
2023/08/07 00:11:06;;;;;;;4.50;4.20;;;;;;;;;;5104636;28;20590;-81
2023/08/07 00:13:34;;;;;;;5.60;4.43;;;;;;;;;;5077673;28;20285;-80
2023/08/07 00:16:01;;;;;;;3.90;3.60;;;;;;;;;;5093809;28;20199;-80
2023/08/07 00:18:29;;;;;;;4.73;4.23;;;;;;;;;;5112532;28;20196;-80
2023/08/07 00:20:56;;;;;;;4.70;4.30;;;;;;;;;;5093884;28;20305;-80
2023/08/07 00:23:22;;;;;;;4.40;4.00;;;;;;;;;;5112177;28;20199;-81
2023/08/07 00:25:50;;;;;;;4.63;4.27;;;;;;;;;;5094607;28;20199;-81
2023/08/07 00:28:17;;;;;;;4.10;3.70;;;;;;;;;;5094393;28;20621;-80
2023/08/07 00:30:46;;;;;;;4.10;3.80;;;;;;;;;;5081068;28;20653;-80
2023/08/07 00:33:13;;;;;;;5.93;4.47;;;;;;;;;;5115946;28;20209;-80
2023/08/07 00:35:40;;;;;;;5.60;3.40;;;;;;;;;;5098066;28;20199;-81
2023/08/07 00:38:07;;;;;;;4.53;4.13;;;;;;;;;;5080488;28;20607;-80
2023/08/07 00:40:41;;;;;;;3.83;3.53;;;;;;;;;;5097898;28;20219;-80
2023/08/07 00:43:09;;;;;;;4.83;3.97;;;;;;;;;;5115515;28;20209;-80
2023/08/07 00:45:39;;;;;;;4.70;4.30;;;;;;;;;;5115134;28;20628;-81
2023/08/07 00:48:08;;;;;;;5.60;4.70;;;;;;;;;;5116466;28;20199;-81
2023/08/07 00:50:35;;;;;;;6.40;4.10;;;;;;;;;;5115828;28;20585;-80
2023/08/07 00:53:02;;;;;;;4.73;4.33;;;;;;;;;;5096745;28;20226;-80
2023/08/07 00:55:29;;;;;;;4.57;4.17;;;;;;;;;;5115457;28;20203;-80
2023/08/07 00:57:57;;;;;;;4.87;4.00;;;;;;;;;;5115246;28;20669;-80
2023/08/07 01:00:24;;;;;;;4.30;3.90;;;;;;;;;;5115206;28;20227;-81
2023/08/07 01:02:52;;;;;;;4.23;3.80;;;;;;;;;;5115396;28;20202;-81
2023/08/07 01:05:21;;;;;;;4.53;4.13;;;;;;;;;;5077516;28;20555;-80
2023/08/07 01:07:51;;;;;;;4.93;4.30;;;;;;;;;;5094780;28;20678;-80
2023/08/07 01:10:19;;;;;;;4.87;4.47;;;;;;;;;;5077658;28;20591;-80
2023/08/07 01:12:53;;;;;;;4.33;3.93;;;;;;;;;;5077227;28;20200;-80
2023/08/07 01:15:24;;;;;;;5.03;3.20;;;;;;;;;;5095313;28;20219;-80
2023/08/07 01:17:53;;;;;;;5.53;4.30;;;;;;;;;;5076714;28;20210;-80
2023/08/07 01:20:22;;;;;;;4.13;3.83;;;;;;;;;;5094811;28;20216;-80
2023/08/07 01:22:51;;;;;;;5.50;3.63;;;;;;;;;;5077240;28;20204;-80
2023/08/07 01:25:19;;;;;;;3.83;3.53;;;;;;;;;;5076404;28;20200;-80
2023/08/07 01:27:53;;;;;;;4.57;3.73;;;;;;;;;;5094781;28;20204;-80
2023/08/07 01:30:24;;;;;;;4.87;3.77;;;;;;;;;;5094354;28;20200;-80
2023/08/07 01:33:00;;;;;;;3.17;2.97;;;;;;;;;;5094832;28;20203;-80
2023/08/07 01:35:30;;;;;;;2.97;2.77;;;;;;;;;;5060168;28;20196;-80
2023/08/07 01:38:00;;;;;;;3.37;3.07;;;;;;;;;;5060408;28;20253;-80
2023/08/07 01:40:28;;;;;;;3.53;2.73;;;;;;;;;;5093500;28;20219;-80
2023/08/07 01:42:55;;;;;;;5.00;3.47;;;;;;;;;;5094123;28;20196;-81
2023/08/07 01:45:26;;;;;;;5.60;3.27;;;;;;;;;;5076583;28;20618;-81
2023/08/07 01:47:53;;;;;;;4.87;3.33;;;;;;;;;;5095169;28;20192;-81
2023/08/07 01:50:20;;;;;;;4.80;3.50;;;;;;;;;;5076388;28;20232;-81
2023/08/07 01:52:47;;;;;;;3.53;3.23;;;;;;;;;;5076155;28;20228;-81
2023/08/07 01:55:17;;;;;;;3.30;3.00;;;;;;;;;;5094103;28;20204;-80
2023/08/07 01:57:44;;;;;;;3.00;2.80;;;;;;;;;;5075951;28;20219;-81
2023/08/07 02:00:11;;;;;;;4.47;3.00;;;;;;;;;;5059512;28;20342;-81
2023/08/07 02:02:38;;;;;;;4.67;3.00;;;;;;;;;;5093620;28;20204;-81
2023/08/07 02:05:06;;;;;;;4.63;3.03;;;;;;;;;;5093873;28;20207;-81
2023/08/07 02:07:34;;;;;;;4.10;3.50;;;;;;;;;;5075904;28;20203;-81
2023/08/07 02:10:00;;;;;;;3.80;3.17;;;;;;;;;;5059493;28;20253;-81
2023/08/07 02:12:32;;;;;;;3.13;2.90;;;;;;;;;;5093468;28;20200;-80
2023/08/07 02:14:59;;;;;;;3.43;3.13;;;;;;;;;;5093437;28;20204;-81
2023/08/07 02:17:26;;;;;;;3.67;3.37;;;;;;;;;;5075670;28;20208;-80
2023/08/07 02:19:53;;;;;;;4.60;4.13;;;;;;;;;;5093645;28;20200;-80
2023/08/07 02:22:20;;;;;;;3.17;2.97;;;;;;;;;;5075926;28;20204;-80
2023/08/07 02:24:47;;;;;;;4.10;3.70;;;;;;;;;;5093485;28;20204;-80
2023/08/07 02:27:14;;;;;;;4.30;3.30;;;;;;;;;;5075192;28;20694;-80
2023/08/07 02:29:43;;;;;;;5.37;3.20;;;;;;;;;;5093736;28;20188;-81
2023/08/07 02:32:10;;;;;;;3.70;3.40;;;;;;;;;;5093183;28;20552;-80
2023/08/07 02:34:37;;;;;;;3.40;3.10;;;;;;;;;;5093318;28;20192;-80
2023/08/07 02:37:04;;;;;;;4.33;3.30;;;;;;;;;;5059431;28;20199;-81
2023/08/07 02:39:31;;;;;;;4.10;3.43;;;;;;;;;;5075156;28;20196;-80
2023/08/07 02:41:58;;;;;;;3.27;3.07;;;;;;;;;;5058144;28;20707;-80
2023/08/07 02:44:26;;;;;;;3.80;3.50;;;;;;;;;;5075366;28;20196;-80
2023/08/07 02:46:54;;;;;;;6.60;3.67;;;;;;;;;;5075222;28;20200;-81
2023/08/07 02:49:22;;;;;;;3.30;3.03;;;;;;;;;;5075378;28;20196;-81
2023/08/07 02:51:49;;;;;;;3.43;3.13;;;;;;;;;;5074169;28;20698;-81
2023/08/07 02:54:16;;;;;;;4.17;3.87;;;;;;;;;;5093328;28;20278;-81
2023/08/07 02:56:43;;;;;;;5.07;4.00;;;;;;;;;;5074768;28;20196;-81
2023/08/07 02:59:10;;;;;;;3.23;2.93;;;;;;;;;;5058428;28;20204;-81
2023/08/07 03:01:37;;;;;;;5.23;4.03;;;;;;;;;;5092175;28;20224;-80
2023/08/07 03:04:06;;;;;;;4.40;3.20;;;;;;;;;;5057996;28;20663;-81
2023/08/07 03:06:33;;;;;;;5.17;3.57;;;;;;;;;;5092008;28;20196;-81
2023/08/07 03:09:00;;;;;;;3.40;3.10;;;;;;;;;;5092499;28;20689;-81
2023/08/07 03:11:27;;;;;;;3.23;3.03;;;;;;;;;;5093590;28;20199;-80
2023/08/07 03:13:54;;;;;;;4.30;3.40;;;;;;;;;;5093543;28;20196;-81
2023/08/07 03:16:21;;;;;;;3.63;3.30;;;;;;;;;;5057825;28;20207;-81
2023/08/07 03:18:48;;;;;;;4.07;3.63;;;;;;;;;;5073830;28;20207;-80
2023/08/07 03:21:17;;;;;;;3.60;3.10;;;;;;;;;;5058115;28;20562;-81
2023/08/07 03:23:44;;;;;;;2.33;2.20;;;;;;;;;;5092455;28;20208;-81
2023/08/07 03:26:12;;;;;;;3.17;2.97;;;;;;;;;;5074576;28;20333;-80
2023/08/07 03:28:39;;;;;;;4.30;2.80;;;;;;;;;;5092215;28;21443;-80
2023/08/07 03:31:06;;;;;;;3.40;2.40;;;;;;;;;;5074233;28;20200;-80
2023/08/07 03:33:33;;;;;;;2.07;1.97;;;;;;;;;;5092354;28;20200;-79
2023/08/07 03:36:00;;;;;;;2.53;2.33;;;;;;;;;;5057705;28;20200;-79
2023/08/07 03:38:29;;;;;;;2.30;2.07;;;;;;;;;;5092210;28;20203;-79
2023/08/07 03:40:56;;;;;;;2.70;1.80;;;;;;;;;;5058515;28;20603;-80
2023/08/07 03:43:24;;;;;;;2.30;2.10;;;;;;;;;;5092088;28;20203;-79
2023/08/07 03:45:55;;;;;;;2.20;2.00;;;;;;;;;;5074252;28;20200;-79
2023/08/07 03:48:22;;;;;;;1.80;1.70;;;;;;;;;;5091880;28;20666;-79
2023/08/07 03:50:49;;;;;;;2.10;2.00;;;;;;;;;;5074295;28;20207;-79
2023/08/07 03:53:16;;;;;;;2.27;2.07;;;;;;;;;;5092086;28;20207;-80
2023/08/07 03:55:50;;;;;;;2.10;1.90;;;;;;;;;;5074204;28;20196;-79
2023/08/07 03:58:17;;;;;;;1.90;1.80;;;;;;;;;;5091853;28;20196;-79
2023/08/07 04:00:44;;;;;;;3.53;2.20;;;;;;;;;;5073754;28;20228;-79
2023/08/07 04:03:11;;;;;;;1.90;1.80;;;;;;;;;;5073579;28;20685;-80
2023/08/07 04:05:38;;;;;;;2.93;2.47;;;;;;;;;;5092316;28;20250;-79
2023/08/07 04:08:05;;;;;;;1.80;1.70;;;;;;;;;;5073907;28;20195;-78
2023/08/07 04:10:32;;;;;;;3.60;1.93;;;;;;;;;;5075453;28;20200;-80
2023/08/07 04:13:00;;;;;;;2.23;2.10;;;;;;;;;;5111375;28;20580;-80
2023/08/07 04:15:27;;;;;;;1.77;1.67;;;;;;;;;;5102833;28;20200;-80
2023/08/07 04:17:54;;;;;;;2.17;2.07;;;;;;;;;;5092127;28;20246;-80
2023/08/07 04:20:21;;;;;;;1.90;1.80;;;;;;;;;;5092042;28;20613;-80
2023/08/07 04:22:48;;;;;;;1.90;1.80;;;;;;;;;;5091506;28;20317;-80
2023/08/07 04:25:15;;;;;;;2.30;2.10;;;;;;;;;;5091957;28;20200;-81
2023/08/07 04:27:42;;;;;;;2.40;2.20;;;;;;;;;;5092105;28;20196;-80
2023/08/07 04:30:11;;;;;;;2.60;2.40;;;;;;;;;;5091456;28;20207;-80
2023/08/07 04:32:38;;;;;;;2.37;2.07;;;;;;;;;;5092193;28;20203;-80
2023/08/07 04:35:06;;;;;;;2.30;2.10;;;;;;;;;;5091583;28;20229;-80
2023/08/07 04:37:33;;;;;;;2.50;2.20;;;;;;;;;;5091400;28;20197;-81
2023/08/07 04:40:00;;;;;;;2.43;2.23;;;;;;;;;;5092144;28;20200;-81
2023/08/07 04:42:27;;;;;;;2.30;2.03;;;;;;;;;;5091357;28;20216;-80
2023/08/07 04:44:54;;;;;;;2.70;2.40;;;;;;;;;;5091283;28;20269;-81
2023/08/07 04:47:22;;;;;;;2.57;2.37;;;;;;;;;;5092057;28;20203;-80
2023/08/07 04:49:49;;;;;;;2.67;2.47;;;;;;;;;;5091627;28;20215;-80
2023/08/07 04:52:16;;;;;;;2.63;2.40;;;;;;;;;;5089151;28;20226;-81
2023/08/07 04:54:42;;;;;;;5.07;2.13;;;;;;;;;;5090273;28;20204;-81
2023/08/07 04:57:09;;;;;;;2.70;2.50;;;;;;;;;;5111032;28;20203;-80
2023/08/07 04:59:36;;;;;;;2.20;2.00;;;;;;;;;;5108010;28;20690;-81
2023/08/07 05:02:03;;;;;;;2.50;2.30;;;;;;;;;;5099878;28;20634;-81
2023/08/07 05:04:31;;;;;;;2.43;2.27;;;;;;;;;;5096730;28;20754;-81
2023/08/07 05:06:58;;;;;;;2.30;2.20;;;;;;;;;;5102212;28;20193;-80
2023/08/07 05:09:25;;;;;;;3.67;2.47;;;;;;;;;;5102445;28;20321;-80
2023/08/07 05:11:51;;;;;;;2.40;2.20;;;;;;;;;;5100604;28;20226;-81
2023/08/07 05:14:18;;;;;;;2.10;2.00;;;;;;;;;;5109940;28;20200;-81
2023/08/07 05:16:45;;;;;;;2.47;2.27;;;;;;;;;;5102972;28;20200;-81
2023/08/07 05:19:12;;;;;;;2.50;2.37;;;;;;;;;;5111344;28;20207;-81
2023/08/07 05:21:40;;;;;;;2.50;2.30;;;;;;;;;;5108246;28;20277;-80
2023/08/07 05:24:07;;;;;;;2.80;2.03;;;;;;;;;;5095760;28;20279;-81
2023/08/07 05:26:33;;;;;;;2.60;2.40;;;;;;;;;;5114221;28;20232;-80
2023/08/07 05:29:00;;;;;;;2.37;2.17;;;;;;;;;;5111146;28;20192;-81
2023/08/07 05:31:28;;;;;;;3.60;2.40;;;;;;;;;;5102485;28;20647;-81
2023/08/07 05:33:55;;;;;;;5.07;2.50;;;;;;;;;;5114269;28;20199;-80
2023/08/07 05:36:21;;;;;;;4.20;2.80;;;;;;;;;;5104034;28;20206;-80
2023/08/07 05:38:49;;;;;;;2.47;2.20;;;;;;;;;;5109908;28;20188;-80
2023/08/07 05:41:16;;;;;;;3.23;3.03;;;;;;;;;;5093677;28;20231;-81
2023/08/07 05:43:43;;;;;;;2.73;2.53;;;;;;;;;;5102944;28;20666;-80
2023/08/07 05:46:10;;;;;;;2.53;2.23;;;;;;;;;;5104124;28;20203;-80
2023/08/07 05:48:37;;;;;;;2.60;2.40;;;;;;;;;;5113886;28;20188;-80
2023/08/07 05:51:04;;;;;;;2.63;2.43;;;;;;;;;;5113528;28;20196;-80
2023/08/07 05:53:30;;;;;;;2.73;2.53;;;;;;;;;;5098734;28;20197;-80
2023/08/07 05:55:59;;;;;;;3.07;2.77;;;;;;;;;;5103781;28;20202;-81
2023/08/07 05:58:25;;;;;;;3.13;2.20;;;;;;;;;;5097230;28;20204;-81
2023/08/07 06:00:52;;;;;;;2.40;2.20;;;;;;;;;;5101156;28;20203;-81
2023/08/07 06:03:19;;;;;;;2.47;2.30;;;;;;;;;;5112269;28;20199;-80
2023/08/07 06:05:46;;;;;;;2.60;2.40;;;;;;;;;;5102071;28;20196;-80
2023/08/07 06:08:13;;;;;;;2.43;2.23;;;;;;;;;;5098532;28;20658;-80
2023/08/07 06:10:39;;;;;;;2.37;2.17;;;;;;;;;;5113642;28;20195;-80
2023/08/07 06:13:08;;;;;;;3.00;1.97;;;;;;;;;;5094888;28;20205;-81
2023/08/07 06:15:35;;;;;;;3.20;2.87;;;;;;;;;;5092716;28;20192;-80
2023/08/07 06:18:01;;;;;;;2.20;2.10;;;;;;;;;;5103917;28;20195;-80
2023/08/07 06:20:28;;;;;;;2.37;2.17;;;;;;;;;;5092970;28;20196;-80
2023/08/07 06:22:55;;;;;;;2.50;2.30;;;;;;;;;;5098536;28;20211;-80
2023/08/07 06:25:22;;;;;;;4.90;2.23;;;;;;;;;;5112960;28;20227;-80
2023/08/07 06:27:49;;;;;;;2.10;2.00;;;;;;;;;;5112896;28;20197;-80
2023/08/07 06:30:17;;;;;;;2.03;1.93;;;;;;;;;;5113083;28;20199;-81
2023/08/07 06:32:44;;;;;;;4.30;1.90;;;;;;;;;;5112633;28;20199;-80
2023/08/07 06:35:10;;;;;;;2.17;2.07;;;;;;;;;;5099854;28;20204;-80
2023/08/07 06:37:37;;;;;;;1.87;1.77;;;;;;;;;;5099789;28;20207;-80
2023/08/07 06:40:05;;;;;;;1.70;1.60;;;;;;;;;;5099715;28;20249;-80
2023/08/07 06:42:31;;;;;;;3.10;2.00;;;;;;;;;;5099309;28;20561;-80
2023/08/07 06:44:58;;;;;;;3.17;1.80;;;;;;;;;;5112563;28;20199;-80
2023/08/07 06:47:26;;;;;;;1.80;1.70;;;;;;;;;;5112398;28;20728;-80
2023/08/07 06:49:53;;;;;;;1.70;1.60;;;;;;;;;;5110832;28;20203;-80
2023/08/07 06:52:20;;;;;;;1.47;1.20;;;;;;;;;;5098580;28;20234;-80
2023/08/07 06:54:47;;;;;;;1.60;1.50;;;;;;;;;;5100064;28;20200;-80
2023/08/07 06:57:14;;;;;;;1.53;1.43;;;;;;;;;;5102901;28;20196;-80
2023/08/07 06:59:41;;;;;;;1.53;1.40;;;;;;;;;;5094245;28;20204;-79
2023/08/07 07:02:08;;;;;;;1.60;1.50;;;;;;;;;;5102866;28;20303;-80
2023/08/07 07:04:37;;;;;;;2.40;1.87;;;;;;;;;;5106961;28;20202;-80
2023/08/07 07:07:04;;;;;;;1.70;1.60;;;;;;;;;;5102857;28;20216;-80
2023/08/07 07:09:31;;;;;;;2.13;1.67;;;;;;;;;;5107650;28;20196;-80
2023/08/07 07:11:58;;;;;;;1.93;1.80;;;;;;;;;;5101882;28;20224;-80
2023/08/07 07:14:25;;;;;;;4.50;4.10;;;;;;;;;;5094046;28;20669;-80
2023/08/07 07:16:53;;;;;;;1.63;1.33;;;;;;;;;;5111929;28;20343;-80
2023/08/07 07:19:20;;;;;;;2.30;2.10;;;;;;;;;;5097441;28;20195;-80
2023/08/07 07:21:48;;;;;;;1.17;1.17;;;;;;;;;;5103002;28;20240;-80
2023/08/07 07:24:14;;;;;;;1.47;1.37;;;;;;;;;;5108960;28;20212;-80
2023/08/07 07:26:42;;;;;;;2.03;1.60;;;;;;;;;;5101075;28;20196;-80
2023/08/07 07:29:09;;;;;;;1.10;1.07;;;;;;;;;;5095564;28;20654;-80
2023/08/07 07:31:36;;;;;;;2.03;1.40;;;;;;;;;;5111438;28;20673;-81
2023/08/07 07:34:03;;;;;;;1.40;1.30;;;;;;;;;;5108010;28;20659;-80
2023/08/07 07:36:30;;;;;;;1.70;1.60;;;;;;;;;;5100545;28;20196;-80
2023/08/07 07:39:01;;;;;;;1.90;1.80;;;;;;;;;;5104167;28;20193;-80
2023/08/07 07:41:28;;;;;;;1.43;1.33;;;;;;;;;;5091525;28;20204;-80
2023/08/07 07:43:56;;;;;;;1.50;1.37;;;;;;;;;;5096653;28;20195;-80
2023/08/07 07:46:23;;;;;;;1.40;1.30;;;;;;;;;;5098959;28;20279;-80
2023/08/07 07:48:50;;;;;;;1.87;1.77;;;;;;;;;;5097073;28;20325;-80
2023/08/07 07:51:17;;;;;;;1.90;1.70;;;;;;;;;;5098566;28;20196;-80
2023/08/07 07:53:43;;;;;;;1.40;1.30;;;;;;;;;;5096098;28;20610;-80
2023/08/07 07:56:11;;;;;;;1.30;1.30;;;;;;;;;;5111780;28;20196;-80
2023/08/07 07:58:40;;;;;;;0.97;0.97;;;;;;;;;;5111238;28;20206;-80
2023/08/07 08:01:08;;;;;;;1.17;1.10;;;;;;;;;;5097345;28;20735;-81
2023/08/07 08:03:35;;;;;;;1.10;1.00;;;;;;;;;;5105813;28;20216;-80
2023/08/07 08:06:02;;;;;;;1.20;1.10;;;;;;;;;;5104800;28;20195;-80
2023/08/07 08:08:28;;;;;;;0.97;0.97;;;;;;;;;;5096313;28;20248;-80
2023/08/07 08:10:55;;;;;;;0.90;0.90;;;;;;;;;;5097014;28;20204;-80
2023/08/07 08:13:25;;;;;;;0.97;0.97;;;;;;;;;;5103190;28;20249;-80
2023/08/07 08:15:52;;;;;;;0.83;0.83;;;;;;;;;;5105005;28;20277;-80
2023/08/07 08:18:18;;;;;;;0.97;0.97;;;;;;;;;;5099072;28;20203;-81
2023/08/07 08:20:45;;;;;;;1.00;1.00;;;;;;;;;;5096443;28;20196;-80
2023/08/07 08:23:12;;;;;;;0.83;0.83;;;;;;;;;;5099225;28;20227;-80
2023/08/07 08:25:39;;;;;;;1.10;1.10;;;;;;;;;;5096636;28;20211;-80
2023/08/07 08:28:05;;;;;;;1.10;1.10;;;;;;;;;;5090671;28;20253;-80
2023/08/07 08:30:34;;;;;;;1.10;1.10;;;;;;;;;;5104260;28;20554;-80
2023/08/07 08:33:00;;;;;;;1.30;1.20;;;;;;;;;;5100759;28;20203;-80
2023/08/07 08:35:27;;;;;;;4.00;1.47;;;;;;;;;;5097102;28;20199;-80
2023/08/07 08:37:54;;;;;;;1.90;1.00;;;;;;;;;;5110956;28;20196;-80
2023/08/07 08:40:22;;;;;;;7.63;1.30;;;;;;;;;;5096136;28;20204;-80
2023/08/07 08:42:48;;;;;;;3.40;1.30;;;;;;;;;;5110912;28;20238;-80
2023/08/07 08:45:15;;;;;;;0.80;0.80;;;;;;;;;;5097274;28;20203;-81
2023/08/07 08:47:45;;;;;;;1.03;1.00;;;;;;;;;;5111017;28;20276;-80
2023/08/07 08:50:14;;;;;;;1.40;1.17;;;;;;;;;;5097840;28;20275;-80
2023/08/07 08:52:44;;;;;;;1.00;1.00;;;;;;;;;;5107528;28;20228;-80
2023/08/07 08:55:11;;;;;;;1.33;1.23;;;;;;;;;;5108200;28;20287;-80
2023/08/07 08:57:39;;;;;;;1.20;1.10;;;;;;;;;;5106769;28;20279;-79
2023/08/07 09:00:17;;;;;;;5.33;1.20;;;;;;;;;;5098449;28;20200;-80
2023/08/07 09:02:46;;;;;;;4.13;1.13;;;;;;;;;;5114638;28;20302;-80
2023/08/07 09:05:13;;;;;;;1.48;1.38;;;;;;;;;;5114801;28;20191;-80
2023/08/07 09:07:40;;;;;;;1.02;1.02;;;;;;;;;;5114464;28;20200;-80
2023/08/07 09:10:08;;;;;;;1.83;1.20;;;;;;;;;;5095467;28;20197;-79
2023/08/07 09:12:35;;;;;;;1.02;1.00;;;;;;;;;;5095910;28;20212;-79
2023/08/07 09:15:04;;;;;;;1.30;1.20;;;;;;;;;;5105376;28;20193;-79
2023/08/07 09:17:35;;;;;;;1.27;1.17;;;;;;;;;;5096520;28;20251;-79
2023/08/07 09:20:06;;;;;;;1.30;1.20;;;;;;;;;;5104242;28;20313;-79
2023/08/07 09:22:32;;;;;;;1.23;1.23;;;;;;;;;;5097304;28;20293;-79
2023/08/07 09:25:00;;;;;;;1.10;1.10;;;;;;;;;;5114264;28;20196;-79
2023/08/07 09:27:27;;;;;;;1.40;1.30;;;;;;;;;;5111134;28;20247;-80
2023/08/07 09:29:56;;;;;;;1.52;1.42;;;;;;;;;;5103704;28;20626;-80
2023/08/07 09:32:24;;;;;;;1.10;1.10;;;;;;;;;;5111622;28;20199;-81
2023/08/07 09:34:51;;;;;;;2.30;1.30;;;;;;;;;;5093984;28;20614;-80
2023/08/07 09:37:19;;;;;;;1.20;1.20;;;;;;;;;;5107107;28;20192;-80
2023/08/07 09:39:47;;;;;;;1.20;1.20;;;;;;;;;;5103612;28;20206;-80
2023/08/07 09:42:15;;;;;;;1.13;1.13;;;;;;;;;;5110075;28;20192;-80
2023/08/07 09:44:42;;;;;;;1.38;1.27;;;;;;;;;;5105507;28;20199;-80
2023/08/07 09:47:13;;;;;;;1.75;1.60;;;;;;;;;;5099431;28;20192;-80
2023/08/07 09:49:40;;;;;;;1.40;1.30;;;;;;;;;;5113647;28;20657;-80
2023/08/07 09:52:08;;;;;;;1.10;1.10;;;;;;;;;;5093534;28;20224;-81
2023/08/07 09:54:37;;;;;;;1.90;1.60;;;;;;;;;;5092929;28;20231;-81
2023/08/07 09:57:04;;;;;;;1.20;1.20;;;;;;;;;;5093196;28;20224;-81
2023/08/07 09:59:33;;;;;;;2.65;1.20;;;;;;;;;;5105299;28;20196;-80
2023/08/07 10:02:01;;;;;;;1.10;1.10;;;;;;;;;;5100543;28;20195;-80
2023/08/07 10:04:29;;;;;;;1.40;1.30;;;;;;;;;;5113052;28;20659;-81
2023/08/07 10:06:56;;;;;;;1.15;1.05;;;;;;;;;;5113393;28;20199;-81
2023/08/07 10:09:23;;;;;;;10.65;1.95;;;;;;;;;;5098252;28;20626;-81
2023/08/07 10:11:51;;;;;;;1.10;1.10;;;;;;;;;;5093300;28;20193;-81
2023/08/07 10:14:19;;;;;;;1.30;1.20;;;;;;;;;;5104706;28;20203;-81
2023/08/07 10:16:46;;;;;;;1.65;1.08;;;;;;;;;;5113499;28;20207;-80
2023/08/07 10:19:13;;;;;;;1.33;1.23;;;;;;;;;;5096979;28;20200;-81
2023/08/07 10:21:41;;;;;;;1.58;1.33;;;;;;;;;;5092758;28;20203;-81
2023/08/07 10:24:10;;;;;;;14.55;1.63;;;;;;;;;;5109076;28;20223;-81
2023/08/07 10:26:38;;;;;;;1.17;1.15;;;;;;;;;;5103166;28;20200;-80
2023/08/07 10:29:09;;;;;;;1.27;1.20;;;;;;;;;;5096864;28;20206;-79
2023/08/07 10:31:36;;;;;;;1.63;1.52;;;;;;;;;;5112539;28;20199;-80
2023/08/07 10:34:03;;;;;;;1.10;1.10;;;;;;;;;;5096111;28;20202;-79
2023/08/07 10:36:34;;;;;;;1.35;1.25;;;;;;;;;;5092427;28;20192;-79
2023/08/07 10:39:07;;;;;;;3.33;1.10;;;;;;;;;;5095985;28;20218;-80
2023/08/07 10:41:39;;;;;;;1.27;1.27;;;;;;;;;;5100191;28;20204;-80
2023/08/07 10:44:18;;;;;;;1.23;1.20;;;;;;;;;;5091869;28;20232;-80
2023/08/07 10:46:48;;;;;;;1.20;1.10;;;;;;;;;;5094665;28;20200;-79
2023/08/07 10:49:31;;;;;;;2.13;1.52;;;;;;;;;;5102410;28;20282;-80
2023/08/07 10:51:57;;;;;;;1.13;1.10;;;;;;;;;;5093880;28;20231;-80
2023/08/07 10:54:24;;;;;;;1.27;1.17;;;;;;;;;;5112325;28;20191;-80
2023/08/07 10:56:54;;;;;;;2.80;1.50;;;;;;;;;;5092845;28;20261;-79
2023/08/07 10:59:25;;;;;;;2.33;1.40;;;;;;;;;;5092177;28;20287;-79
2023/08/07 11:01:52;;;;;;;1.40;1.30;;;;;;;;;;5098745;28;20202;-80
2023/08/07 11:04:20;;;;;;;1.30;1.20;;;;;;;;;;5098139;28;20241;-80
2023/08/07 11:06:48;;;;;;;1.55;1.42;;;;;;;;;;5112459;28;20253;-80
2023/08/07 11:09:15;;;;;;;1.85;1.27;;;;;;;;;;5112365;28;20200;-80
2023/08/07 11:11:43;;;;;;;1.25;1.15;;;;;;;;;;5112415;28;20199;-81
2023/08/07 11:14:12;;;;;;;0.95;0.95;;;;;;;;;;5111101;28;20207;-79
2023/08/07 11:16:40;;;;;;;1.80;1.65;;;;;;;;;;5112165;28;20191;-80
2023/08/07 11:19:07;;;;;;;1.70;1.60;;;;;;;;;;5111551;28;20603;-80
2023/08/07 11:21:35;;;;;;;1.65;1.55;;;;;;;;;;5102758;28;20674;-81
2023/08/07 11:24:01;;;;;;;1.80;1.27;;;;;;;;;;5105042;28;20233;-80
2023/08/07 11:26:28;;;;;;;1.63;1.52;;;;;;;;;;5098454;28;20215;-80
2023/08/07 11:28:55;;;;;;;1.50;1.40;;;;;;;;;;5098968;28;20595;-80
2023/08/07 11:31:24;;;;;;;4.22;1.10;;;;;;;;;;5111708;28;20285;-80
2023/08/07 11:33:53;;;;;;;2.25;1.58;;;;;;;;;;5097322;28;20265;-80
2023/08/07 11:36:19;;;;;;;2.25;1.90;;;;;;;;;;5101252;28;20573;-81
2023/08/07 11:38:46;;;;;;;1.80;1.70;;;;;;;;;;5107043;28;20254;-81
2023/08/07 11:41:15;;;;;;;4.88;1.52;;;;;;;;;;5101341;28;20197;-80
2023/08/07 11:43:42;;;;;;;4.00;1.55;;;;;;;;;;5103075;28;20212;-80
2023/08/07 11:46:10;;;;;;;3.80;1.75;;;;;;;;;;5102006;28;20195;-81
2023/08/07 11:48:38;;;;;;;2.42;1.50;;;;;;;;;;5098180;28;20195;-81
2023/08/07 11:51:07;;;;;;;1.85;1.02;;;;;;;;;;5099386;28;20200;-81
2023/08/07 11:53:35;;;;;;;1.40;1.30;;;;;;;;;;5104538;28;20188;-81
2023/08/07 11:56:04;;;;;;;1.83;1.42;;;;;;;;;;5090943;28;20200;-81
2023/08/07 11:58:35;;;;;;;1.92;1.55;;;;;;;;;;5105496;28;20200;-81
2023/08/07 12:01:05;;;;;;;4.40;1.42;;;;;;;;;;5104363;28;20199;-82
2023/08/07 12:03:34;;;;;;;1.10;1.10;;;;;;;;;;5098491;28;20211;-80
2023/08/07 12:06:03;;;;;;;1.00;1.00;;;;;;;;;;5111534;28;20199;-81
2023/08/07 12:08:34;;;;;;;1.65;1.55;;;;;;;;;;5103795;28;20572;-81
2023/08/07 12:11:02;;;;;;;1.17;1.17;;;;;;;;;;5090865;28;20196;-80
2023/08/07 12:13:30;;;;;;;1.27;1.27;;;;;;;;;;5100589;28;20260;-81
2023/08/07 12:15:58;;;;;;;1.30;1.20;;;;;;;;;;5096754;28;20208;-81
2023/08/07 12:18:28;;;;;;;2.72;1.52;;;;;;;;;;5111454;28;20199;-81
2023/08/07 12:20:59;;;;;;;1.95;1.48;;;;;;;;;;5108386;28;20199;-81
2023/08/07 12:23:26;;;;;;;1.65;1.52;;;;;;;;;;5090950;28;20319;-81
2023/08/07 12:25:54;;;;;;;1.63;1.50;;;;;;;;;;5109440;28;20192;-80
2023/08/07 12:28:21;;;;;;;2.55;1.50;;;;;;;;;;5115131;28;20199;-81
2023/08/07 12:30:49;;;;;;;2.25;2.00;;;;;;;;;;5110595;28;20196;-81
2023/08/07 12:33:15;;;;;;;1.98;1.88;;;;;;;;;;5094297;28;20215;-82
2023/08/07 12:35:44;;;;;;;9.77;3.63;;;;;;;;;;5094924;28;20192;-81
2023/08/07 12:38:13;;;;;;;1.90;1.70;;;;;;;;;;5104222;28;20677;-81
2023/08/07 12:40:40;;;;;;;1.42;1.33;;;;;;;;;;5095789;28;20195;-81
2023/08/07 12:43:08;;;;;;;6.18;5.47;;;;;;;;;;5094263;28;20644;-82
2023/08/07 12:45:36;;;;;;;1.50;1.40;;;;;;;;;;5094820;28;20628;-81
2023/08/07 12:48:03;;;;;;;1.40;1.30;;;;;;;;;;5094308;28;20189;-81
2023/08/07 12:50:31;;;;;;;1.70;1.60;;;;;;;;;;5108376;28;20207;-82
2023/08/07 12:52:58;;;;;;;2.60;1.60;;;;;;;;;;5108801;28;20223;-80
2023/08/07 12:55:25;;;;;;;1.80;1.70;;;;;;;;;;5114649;28;20199;-81
2023/08/07 12:57:53;;;;;;;3.42;1.63;;;;;;;;;;5113160;28;20254;-81
2023/08/07 13:00:23;;;;;;;2.50;2.30;;;;;;;;;;5101418;28;20204;-80
2023/08/07 13:02:51;;;;;;;2.53;2.33;;;;;;;;;;5101793;28;20694;-80
2023/08/07 13:05:19;;;;;;;3.80;2.08;;;;;;;;;;5104973;28;20227;-80
2023/08/07 13:07:46;;;;;;;3.50;1.80;;;;;;;;;;5095608;28;20666;-80
2023/08/07 13:10:14;;;;;;;1.88;1.65;;;;;;;;;;5104696;28;20192;-81
2023/08/07 13:12:42;;;;;;;3.97;1.40;;;;;;;;;;5094208;28;20199;-80
2023/08/07 13:15:10;;;;;;;1.63;1.52;;;;;;;;;;5102875;28;20199;-81
2023/08/07 13:17:38;;;;;;;1.58;1.48;;;;;;;;;;5100115;28;20577;-81
2023/08/07 13:20:07;;;;;;;1.60;1.50;;;;;;;;;;5114820;28;20195;-81
2023/08/07 13:22:34;;;;;;;1.08;1.08;;;;;;;;;;5099042;28;20557;-80
2023/08/07 13:25:02;;;;;;;4.20;1.90;;;;;;;;;;5114249;28;20218;-80
2023/08/07 13:27:30;;;;;;;1.40;1.30;;;;;;;;;;5101035;28;20753;-80
2023/08/07 13:29:56;;;;;;;1.55;1.45;;;;;;;;;;5114150;28;20222;-80
2023/08/07 13:32:23;;;;;;;1.40;1.30;;;;;;;;;;5096418;28;20192;-80
2023/08/07 13:34:51;;;;;;;1.60;1.50;;;;;;;;;;5104513;28;20195;-81
2023/08/07 13:37:18;;;;;;;1.98;1.88;;;;;;;;;;5112851;28;20208;-80
2023/08/07 13:39:45;;;;;;;1.40;1.30;;;;;;;;;;5113825;28;20206;-80
2023/08/07 13:42:12;;;;;;;1.40;1.25;;;;;;;;;;5098294;28;20241;-80
2023/08/07 13:44:38;;;;;;;1.02;1.02;;;;;;;;;;5102173;28;20564;-81
2023/08/07 13:47:06;;;;;;;2.25;1.42;;;;;;;;;;5110173;28;20194;-80
2023/08/07 13:49:33;;;;;;;1.00;1.00;;;;;;;;;;5113644;28;20203;-79
2023/08/07 13:52:01;;;;;;;1.98;1.50;;;;;;;;;;5094459;28;20235;-81
2023/08/07 13:54:28;;;;;;;1.67;1.58;;;;;;;;;;5093162;28;20204;-80
2023/08/07 13:56:55;;;;;;;7.43;1.88;;;;;;;;;;5099741;28;20192;-80
2023/08/07 13:59:23;;;;;;;1.70;1.60;;;;;;;;;;5100617;28;20207;-80
2023/08/07 14:01:49;;;;;;;1.73;1.60;;;;;;;;;;5093303;28;20188;-80
2023/08/07 14:04:16;;;;;;;3.17;2.63;;;;;;;;;;5107224;28;20366;-81
2023/08/07 14:06:44;;;;;;;6.85;3.33;;;;;;;;;;5099505;28;20661;-80
2023/08/07 14:09:13;;;;;;;3.42;2.25;;;;;;;;;;5101810;28;20210;-80
2023/08/07 14:11:40;;;;;;;1.58;1.48;;;;;;;;;;5105871;28;20210;-80
2023/08/07 14:14:07;;;;;;;1.80;1.70;;;;;;;;;;5105691;28;20214;-79
2023/08/07 14:16:34;;;;;;;1.80;1.58;;;;;;;;;;5113884;28;20195;-79
2023/08/07 14:19:01;;;;;;;1.85;1.35;;;;;;;;;;5111763;28;20565;-80
2023/08/07 14:21:27;;;;;;;1.67;1.58;;;;;;;;;;5093209;28;20203;-80
2023/08/07 14:23:54;;;;;;;1.55;1.30;;;;;;;;;;5091779;28;20227;-81
2023/08/07 14:26:25;;;;;;;1.50;1.40;;;;;;;;;;5105156;28;20700;-80
2023/08/07 14:28:51;;;;;;;1.40;1.30;;;;;;;;;;5106029;28;20187;-80
2023/08/07 14:31:18;;;;;;;1.20;1.17;;;;;;;;;;5092862;28;20204;-80
2023/08/07 14:33:45;;;;;;;1.60;1.50;;;;;;;;;;5093042;28;20196;-80
2023/08/07 14:36:12;;;;;;;1.23;1.23;;;;;;;;;;5104163;28;20567;-81
2023/08/07 14:38:39;;;;;;;2.38;1.20;;;;;;;;;;5108514;28;20199;-80
2023/08/07 14:41:05;;;;;;;1.75;1.13;;;;;;;;;;5104479;28;20199;-79
2023/08/07 14:43:33;;;;;;;1.20;1.13;;;;;;;;;;5104748;28;20241;-80
2023/08/07 14:46:00;;;;;;;1.23;1.10;;;;;;;;;;5101419;28;20206;-79